createdAt,value
2022-08-25T00:02:01.979Z,100295.22
2022-08-25T00:04:31.219Z,100302.56
2022-08-25T00:07:04.878Z,100303.75
2022-08-25T00:09:34.240Z,100297.66
2022-08-25T00:12:02.469Z,100293.63
2022-08-25T00:14:37.322Z,100292.81
2022-08-25T00:17:06.208Z,100293.41
2022-08-25T00:19:36.449Z,100290.78
2022-08-25T00:22:08.071Z,100292.59
2022-08-25T00:24:35.335Z,100290.75
2022-08-25T00:27:02.690Z,100286.09
2022-08-25T00:29:32.067Z,100291.19
2022-08-25T00:32:01.059Z,100292.81
2022-08-25T00:34:36.570Z,100280.22
2022-08-25T00:37:07.324Z,100285.69
2022-08-25T00:39:35.443Z,100290.38
2022-08-25T00:42:07.471Z,100289.13
2022-08-25T00:44:43.825Z,100295.63
2022-08-25T00:47:10.996Z,100292.97
2022-08-25T00:49:48.378Z,100293.59
2022-08-25T00:52:21.403Z,100285.47
2022-08-25T00:54:57.123Z,100293.22
2022-08-25T00:57:34.335Z,100296.66
2022-08-25T01:00:20.250Z,100292.00
2022-08-25T01:02:47.535Z,100278.59
2022-08-25T01:05:14.748Z,100287.53
2022-08-25T01:07:44.636Z,100295.22
2022-08-25T01:10:13.656Z,100297.06
2022-08-25T01:12:41.377Z,100297.88
2022-08-25T01:15:13.270Z,100303.16
2022-08-25T01:17:53.440Z,100304.56
2022-08-25T01:20:29.503Z,100311.91
2022-08-25T01:22:57.860Z,100311.09
2022-08-25T01:25:37.290Z,100314.31
2022-08-25T01:28:06.327Z,100318.13
2022-08-25T01:30:33.719Z,100310.47
2022-08-25T01:33:08.114Z,100306.81
2022-08-25T01:35:35.953Z,100313.09
2022-08-25T01:38:05.839Z,100312.50
2022-08-25T01:40:34.182Z,100313.31
2022-08-25T01:43:15.058Z,100316.34
2022-08-25T01:45:46.705Z,100318.78
2022-08-25T01:48:16.469Z,100310.63
2022-08-25T01:50:44.213Z,100309.03
2022-08-25T01:53:27.966Z,100305.78
2022-08-25T01:56:06.130Z,100314.25
2022-08-25T01:58:40.899Z,100311.72
2022-08-25T02:01:18.390Z,100311.28
2022-08-25T02:03:49.513Z,100314.94
2022-08-25T02:06:29.789Z,100312.75
2022-08-25T02:09:01.180Z,100314.47
2022-08-25T02:11:29.192Z,100322.88
2022-08-25T02:13:56.405Z,100320.88
2022-08-25T02:16:31.600Z,100320.63
2022-08-25T02:19:00.031Z,100324.81
2022-08-25T02:21:28.259Z,100317.25
2022-08-25T02:23:55.530Z,100316.06
2022-08-25T02:26:22.915Z,100315.28
2022-08-25T02:28:52.320Z,100316.63
2022-08-25T02:31:23.912Z,100309.78
2022-08-25T02:33:52.067Z,100310.56
2022-08-25T02:36:20.026Z,100306.88
2022-08-25T02:38:47.389Z,100317.06
2022-08-25T02:41:21.593Z,100305.09
2022-08-25T02:43:52.365Z,100304.56
2022-08-25T02:46:21.879Z,100304.13
2022-08-25T02:48:51.256Z,100298.41
2022-08-25T02:51:19.064Z,100302.59
2022-08-25T02:53:48.040Z,100299.94
2022-08-25T02:56:18.602Z,100304.50
2022-08-25T02:58:47.527Z,100306.13
2022-08-25T03:01:15.784Z,100304.63
2022-08-25T03:03:45.697Z,100302.47
2022-08-25T03:06:16.399Z,100297.00
2022-08-25T03:08:44.307Z,100303.28
2022-08-25T03:11:12.093Z,100309.16
2022-08-25T03:13:40.216Z,100302.53
2022-08-25T03:16:11.387Z,100296.28
2022-08-25T03:18:42.194Z,100292.13
2022-08-25T03:21:11.605Z,100293.66
2022-08-25T03:23:40.876Z,100305.44
2022-08-25T03:26:27.814Z,100305.56
2022-08-25T03:28:55.525Z,100306.19
2022-08-25T03:31:25.067Z,100297.03
2022-08-25T03:33:52.177Z,100298.25
2022-08-25T03:36:19.327Z,100278.03
2022-08-25T03:38:46.367Z,100283.69
2022-08-25T03:41:21.453Z,100278.72
2022-08-25T03:43:49.614Z,100281.47
2022-08-25T03:46:35.604Z,100275.38
2022-08-25T03:49:06.447Z,100274.91
2022-08-25T03:51:43.186Z,100275.34
2022-08-25T03:54:11.840Z,100285.63
2022-08-25T03:56:39.662Z,100282.59
2022-08-25T03:59:09.244Z,100290.19
2022-08-25T04:01:38.783Z,100294.38
2022-08-25T04:04:08.580Z,100290.47
2022-08-25T04:06:35.772Z,100296.53
2022-08-25T04:09:02.733Z,100292.31
2022-08-25T04:11:29.735Z,100297.84
2022-08-25T04:13:59.127Z,100294.94
2022-08-25T04:16:31.185Z,100303.34
2022-08-25T04:19:02.228Z,100302.56
2022-08-25T04:21:30.382Z,100302.34
2022-08-25T04:23:57.691Z,100307.31
2022-08-25T04:26:42.443Z,100304.25
2022-08-25T04:29:12.595Z,100308.88
2022-08-25T04:31:46.702Z,100298.66
2022-08-25T04:34:30.635Z,100299.31
2022-08-25T04:37:03.915Z,100307.44
2022-08-25T04:39:31.082Z,100308.03
2022-08-25T04:41:58.111Z,100301.41
2022-08-25T04:44:25.576Z,100311.25
2022-08-25T04:46:52.575Z,100305.06
2022-08-25T04:49:19.770Z,100302.78
2022-08-25T04:51:47.051Z,100299.06
2022-08-25T04:54:21.575Z,100295.50
2022-08-25T04:56:50.400Z,100294.81
2022-08-25T04:59:21.851Z,100296.56
2022-08-25T05:01:52.153Z,100302.59
2022-08-25T05:04:28.042Z,100288.19
2022-08-25T05:06:56.831Z,100297.09
2022-08-25T05:09:25.162Z,100297.34
2022-08-25T05:11:53.554Z,100286.00
2022-08-25T05:14:25.664Z,100290.63
2022-08-25T05:16:55.183Z,100292.84
2022-08-25T05:19:24.174Z,100289.09
2022-08-25T05:21:51.618Z,100297.44
2022-08-25T05:24:19.281Z,100287.75
2022-08-25T05:26:46.324Z,100291.25
2022-08-25T05:29:14.363Z,100300.69
2022-08-25T05:31:47.049Z,100287.09
2022-08-25T05:34:18.816Z,100300.88
2022-08-25T05:36:46.527Z,100292.59
2022-08-25T05:39:13.616Z,100292.00
2022-08-25T05:41:40.959Z,100294.44
2022-08-25T05:44:08.167Z,100286.72
2022-08-25T05:46:35.128Z,100288.09
2022-08-25T05:49:02.149Z,100282.59
2022-08-25T05:51:29.435Z,100280.13
2022-08-25T05:53:56.399Z,100271.53
2022-08-25T05:56:23.407Z,100267.66
2022-08-25T05:58:50.436Z,100273.09
2022-08-25T06:01:47.977Z,100265.97
2022-08-25T06:04:18.007Z,100266.94
2022-08-25T06:06:44.982Z,100266.41
2022-08-25T06:09:12.450Z,100267.03
2022-08-25T06:11:41.063Z,100270.09
2022-08-25T06:14:09.874Z,100267.38
2022-08-25T06:16:38.926Z,100261.66
2022-08-25T06:19:08.926Z,100262.59
2022-08-25T06:21:37.367Z,100258.22
2022-08-25T06:24:05.561Z,100260.63
2022-08-25T06:26:32.811Z,100263.28
2022-08-25T06:28:59.803Z,100261.16
2022-08-25T06:31:26.902Z,100248.47
2022-08-25T06:33:54.019Z,100249.81
2022-08-25T06:36:21.146Z,100245.09
2022-08-25T06:38:48.695Z,100249.06
2022-08-25T06:41:16.727Z,100248.78
2022-08-25T06:43:48.913Z,100257.72
2022-08-25T06:46:22.945Z,100241.00
2022-08-25T06:49:04.897Z,100239.53
2022-08-25T06:51:32.191Z,100244.69
2022-08-25T06:54:00.320Z,100243.06
2022-08-25T06:56:27.313Z,100244.13
2022-08-25T06:58:54.346Z,100232.19
2022-08-25T07:01:26.826Z,100231.03
2022-08-25T07:03:59.887Z,100233.13
2022-08-25T07:06:31.953Z,100241.19
2022-08-25T07:08:59.736Z,100238.94
2022-08-25T07:11:27.542Z,100231.09
2022-08-25T07:13:54.760Z,100230.44
2022-08-25T07:16:22.287Z,100223.78
2022-08-25T07:18:50.753Z,100221.47
2022-08-25T07:21:20.627Z,100229.63
2022-08-25T07:23:50.143Z,100226.28
2022-08-25T07:26:39.586Z,100223.50
2022-08-25T07:29:18.219Z,100221.19
2022-08-25T07:31:47.856Z,100226.06
2022-08-25T07:34:33.666Z,100222.78
2022-08-25T07:37:05.619Z,100229.28
2022-08-25T07:39:34.393Z,100219.44
2022-08-25T07:42:01.839Z,100211.88
2022-08-25T07:44:29.199Z,100206.88
2022-08-25T07:46:56.998Z,100217.69
2022-08-25T07:49:26.647Z,100215.28
2022-08-25T07:52:06.697Z,100219.09
2022-08-25T07:54:37.824Z,100229.94
2022-08-25T07:57:07.823Z,100231.44
2022-08-25T07:59:39.752Z,100226.72
2022-08-25T08:02:17.824Z,100225.25
2022-08-25T08:04:48.870Z,100213.88
2022-08-25T08:07:33.610Z,100212.69
2022-08-25T08:13:01.780Z,100219.97
2022-08-25T08:15:30.211Z,100222.91
2022-08-25T08:17:59.183Z,100212.66
2022-08-25T08:20:27.335Z,100214.91
2022-08-25T08:22:54.547Z,100223.25
2022-08-25T08:25:26.573Z,100225.97
2022-08-25T08:27:55.459Z,100227.53
2022-08-25T08:30:26.169Z,100218.66
2022-08-25T08:33:11.959Z,100216.06
2022-08-25T08:35:43.128Z,100215.63
2022-08-25T08:38:17.264Z,100206.19
2022-08-25T08:42:09.798Z,100204.97
2022-08-25T08:44:44.785Z,100210.91
2022-08-25T08:47:52.580Z,100196.09
2022-08-25T08:50:33.884Z,100193.91
2022-08-25T08:53:19.801Z,100191.28
2022-08-25T08:55:54.403Z,100196.34
2022-08-25T08:58:44.549Z,100176.53
2022-08-25T09:01:19.552Z,100188.78
2022-08-25T09:03:56.940Z,100179.50
2022-08-25T09:06:37.736Z,100175.66
2022-08-25T09:09:07.167Z,100176.38
2022-08-25T09:12:09.414Z,100174.91
2022-08-25T09:15:00.826Z,100176.66
2022-08-25T09:17:42.886Z,100170.22
2022-08-25T09:20:54.946Z,100161.72
2022-08-25T09:23:51.904Z,100164.69
2022-08-25T09:27:17.918Z,100168.69
2022-08-25T09:30:03.143Z,100145.72
2022-08-25T09:32:48.619Z,100134.06
2022-08-25T09:35:29.859Z,100133.75
2022-08-25T09:38:09.383Z,100140.38
2022-08-25T09:40:41.054Z,100136.25
2022-08-25T09:43:28.909Z,100132.94
2022-08-25T09:46:10.787Z,100126.81
2022-08-25T09:48:56.013Z,100120.41
2022-08-25T09:51:42.272Z,100110.94
2022-08-25T09:54:12.394Z,100114.75
2022-08-25T09:57:09.288Z,100101.06
2022-08-25T09:59:37.675Z,100098.84
2022-08-25T10:02:28.619Z,100081.31
2022-08-25T10:04:56.496Z,100090.56
2022-08-25T10:07:34.733Z,100097.06
2022-08-25T10:10:17.632Z,100088.72
2022-08-25T10:12:51.201Z,100092.38
2022-08-25T10:15:37.293Z,100087.00
2022-08-25T10:18:28.932Z,100083.91
2022-08-25T10:21:11.718Z,100084.56
2022-08-25T10:23:53.420Z,100078.66
2022-08-25T10:26:53.148Z,100069.28
2022-08-25T10:30:00.819Z,100064.38
2022-08-25T10:32:47.911Z,100069.63
2022-08-25T10:35:26.582Z,100061.50
2022-08-25T10:38:07.627Z,100061.13
2022-08-25T10:41:00.282Z,100055.34
2022-08-25T10:43:32.983Z,100059.13
2022-08-25T10:46:23.947Z,100047.69
2022-08-25T10:49:19.799Z,100039.00
2022-08-25T10:51:56.562Z,100045.59
2022-08-25T10:54:26.589Z,100044.09
2022-08-25T10:57:23.995Z,100039.41
2022-08-25T10:59:58.707Z,100038.28
2022-08-25T11:03:06.575Z,100033.88
2022-08-25T11:05:59.613Z,100029.25
2022-08-25T11:08:33.559Z,100012.75
2022-08-25T11:11:21.673Z,100016.19
2022-08-25T11:13:59.045Z,99996.72
2022-08-25T11:17:05.250Z,100008.56
2022-08-25T11:19:36.322Z,100008.50
2022-08-25T11:22:27.271Z,99999.31
2022-08-25T11:25:26.214Z,99992.88
2022-08-25T11:28:14.604Z,99999.88
2022-08-25T11:30:42.361Z,99999.44
2022-08-25T11:33:20.173Z,99999.53
2022-08-25T11:35:51.392Z,99999.25
2022-08-25T11:38:18.219Z,99990.16
2022-08-25T11:41:25.315Z,99982.97
2022-08-25T11:44:45.529Z,99978.41
2022-08-25T11:47:43.591Z,99956.09
2022-08-25T11:50:37.347Z,99951.47
2022-08-25T11:53:32.793Z,99951.84
2022-08-25T11:56:30.221Z,99954.69
2022-08-25T11:59:04.055Z,99952.94
2022-08-25T12:02:00.415Z,99956.78
2022-08-25T12:04:45.036Z,99954.59
2022-08-25T12:07:27.613Z,99961.22
2022-08-25T12:09:54.777Z,99951.44
2022-08-25T12:12:41.392Z,99949.69
2022-08-25T12:15:30.146Z,99947.56
2022-08-25T12:18:28.221Z,99945.28
2022-08-25T12:20:58.881Z,99943.38
2022-08-25T12:23:46.426Z,99939.91
2022-08-25T12:26:59.310Z,99937.13
2022-08-25T12:29:49.341Z,99935.38
2022-08-25T12:32:45.635Z,99934.22
2022-08-25T12:35:22.546Z,99943.34
2022-08-25T12:38:00.406Z,99936.97
2022-08-25T12:40:37.632Z,99937.44
2022-08-25T12:43:13.905Z,99933.22
2022-08-25T12:45:49.375Z,99932.13
2022-08-25T12:48:28.770Z,99924.81
2022-08-25T12:51:06.627Z,99920.72
2022-08-25T12:53:42.471Z,99915.81
2022-08-25T12:56:32.691Z,99925.34
2022-08-25T12:59:15.311Z,99930.19
2022-08-25T13:02:30.105Z,99922.88
2022-08-25T13:05:24.948Z,99916.25
2022-08-25T13:08:15.889Z,99913.34
2022-08-25T13:10:58.307Z,99912.34
2022-08-25T13:13:52.130Z,99905.47
2022-08-25T13:16:30.149Z,99900.84
2022-08-25T13:19:01.519Z,99907.34
2022-08-25T13:21:42.614Z,99901.47
2022-08-25T13:24:30.534Z,99885.66
2022-08-25T13:27:22.735Z,99886.59
2022-08-25T13:29:58.070Z,99884.84
2022-08-25T13:32:35.316Z,99882.03
2022-08-25T13:35:23.960Z,99869.03
2022-08-25T13:37:54.107Z,99875.22
2022-08-25T13:40:29.166Z,99876.19
2022-08-25T13:43:03.235Z,99868.13
2022-08-25T13:45:41.100Z,99867.75
2022-08-25T13:48:20.904Z,99863.03
2022-08-25T13:50:52.193Z,99856.72
2022-08-25T13:53:26.799Z,99855.34
2022-08-25T13:56:03.359Z,99852.56
2022-08-25T13:58:38.911Z,99857.59
2022-08-25T14:01:49.210Z,99860.41
2022-08-25T14:04:51.820Z,99848.97
2022-08-25T14:07:22.936Z,99839.22
2022-08-25T14:10:04.211Z,99831.81
2022-08-25T14:12:46.326Z,99843.56
2022-08-25T14:15:24.544Z,99846.72
2022-08-25T14:18:27.162Z,99846.91
2022-08-25T14:20:56.598Z,99840.34
2022-08-25T14:23:29.645Z,99832.75
2022-08-25T14:25:58.039Z,99836.25
2022-08-25T14:28:30.339Z,99839.41
2022-08-25T14:31:28.001Z,99837.22
2022-08-25T14:34:04.131Z,99832.22
2022-08-25T14:36:35.206Z,99820.59
2022-08-25T14:39:12.503Z,99824.88
2022-08-25T14:41:42.703Z,99825.31
2022-08-25T14:44:11.133Z,99826.25
2022-08-25T14:46:45.047Z,99821.00
2022-08-25T14:49:18.936Z,99817.50
2022-08-25T14:51:52.216Z,99814.16
2022-08-25T14:54:24.615Z,99810.88
2022-08-25T14:56:52.943Z,99806.97
2022-08-25T14:59:20.016Z,99803.19
2022-08-25T15:01:47.148Z,99810.78
2022-08-25T15:04:27.500Z,99800.19
2022-08-25T15:07:02.817Z,99803.41
2022-08-25T15:09:33.604Z,99799.97
2022-08-25T15:12:01.065Z,99787.72
2022-08-25T15:14:28.802Z,99787.81
2022-08-25T15:17:01.507Z,99791.09
2022-08-25T15:19:29.475Z,99789.78
2022-08-25T15:21:58.050Z,99784.81
2022-08-25T15:24:28.092Z,99783.41
2022-08-25T15:27:02.481Z,99787.00
2022-08-25T15:29:36.288Z,99779.00
2022-08-25T15:32:07.109Z,99776.38
2022-08-25T15:34:35.988Z,99776.47
2022-08-25T15:37:10.992Z,99782.19
2022-08-25T15:39:39.923Z,99775.16
2022-08-25T15:42:12.231Z,99772.84
2022-08-25T15:44:41.174Z,99774.38
2022-08-25T15:47:32.256Z,99773.91
2022-08-25T15:50:12.067Z,99776.72
2022-08-25T15:52:47.390Z,99763.56
2022-08-25T15:55:17.328Z,99771.94
2022-08-25T15:57:44.719Z,99776.59
2022-08-25T16:00:13.528Z,99772.66
2022-08-25T16:02:45.486Z,99772.88
2022-08-25T16:05:16.542Z,99768.75
2022-08-25T16:07:52.053Z,99759.56
2022-08-25T16:10:22.203Z,99764.31
2022-08-25T16:12:49.227Z,99766.88
2022-08-25T16:15:17.290Z,99770.56
2022-08-25T16:17:46.972Z,99763.50
2022-08-25T16:20:17.234Z,99766.47
2022-08-25T16:22:45.346Z,99767.94
2022-08-25T16:25:15.538Z,99764.66
2022-08-25T16:27:46.618Z,99765.69
2022-08-25T16:30:17.439Z,99754.94
2022-08-25T16:32:46.716Z,99753.69
2022-08-25T16:35:14.119Z,99758.13
2022-08-25T16:37:41.453Z,99750.94
2022-08-25T16:40:13.505Z,99754.72
2022-08-25T16:42:41.861Z,99757.13
2022-08-25T16:45:09.330Z,99755.34
2022-08-25T16:47:38.179Z,99751.13
2022-08-25T16:50:11.227Z,99761.97
2022-08-25T16:52:58.243Z,99756.72
2022-08-25T16:55:39.063Z,99758.81
2022-08-25T16:58:07.778Z,99751.97
2022-08-25T17:00:41.729Z,99761.28
2022-08-25T17:03:18.577Z,99755.47
2022-08-25T17:05:46.590Z,99756.72
2022-08-25T17:08:29.467Z,99761.13
2022-08-25T17:11:16.273Z,99751.47
2022-08-25T17:13:53.097Z,99748.25
2022-08-25T17:16:26.299Z,99752.94
2022-08-25T17:18:55.157Z,99752.94
2022-08-25T17:21:24.334Z,99750.78
2022-08-25T17:23:57.346Z,99748.97
2022-08-25T17:26:30.015Z,99758.91
2022-08-25T17:29:00.496Z,99751.91
2022-08-25T17:31:30.652Z,99743.94
2022-08-25T17:33:59.973Z,99745.28
2022-08-25T17:36:27.576Z,99742.59
2022-08-25T17:38:56.759Z,99750.66
2022-08-25T17:41:25.055Z,99745.94
2022-08-25T17:43:52.003Z,99740.44
2022-08-25T17:46:19.014Z,99758.13
2022-08-25T17:48:46.241Z,99749.47
2022-08-25T17:51:15.842Z,99753.66
2022-08-25T17:53:44.809Z,99758.25
2022-08-25T17:56:18.546Z,99766.00
2022-08-25T17:58:45.818Z,99766.19
2022-08-25T18:01:23.072Z,99766.84
2022-08-25T18:03:50.434Z,99768.44
2022-08-25T18:06:18.865Z,99775.25
2022-08-25T18:08:51.705Z,99775.19
2022-08-25T18:11:24.609Z,99773.84
2022-08-25T18:13:53.867Z,99772.06
2022-08-25T18:16:23.162Z,99786.47
2022-08-25T18:18:51.539Z,99786.66
2022-08-25T18:21:22.442Z,99788.06
2022-08-25T18:23:51.073Z,99785.38
2022-08-25T18:26:21.826Z,99794.75
2022-08-25T18:28:51.631Z,99805.50
2022-08-25T18:31:19.944Z,99806.00
2022-08-25T18:33:50.996Z,99805.22
2022-08-25T18:36:20.967Z,99807.84
2022-08-25T18:39:07.401Z,99813.63
2022-08-25T18:41:39.489Z,99808.59
2022-08-25T18:44:08.416Z,99803.56
2022-08-25T18:46:39.346Z,99807.31
2022-08-25T18:49:08.536Z,99807.81
2022-08-25T18:51:36.111Z,99809.69
2022-08-25T18:54:04.109Z,99811.31
2022-08-25T18:56:31.173Z,99807.44
2022-08-25T18:58:58.354Z,99814.97
2022-08-25T19:01:25.654Z,99816.47
2022-08-25T19:03:52.798Z,99815.34
2022-08-25T19:06:20.824Z,99823.34
2022-08-25T19:08:48.619Z,99814.75
2022-08-25T19:11:17.265Z,99817.16
2022-08-25T19:13:49.576Z,99822.47
2022-08-25T19:16:30.276Z,99825.03
2022-08-25T19:18:58.378Z,99827.13
2022-08-25T19:21:25.552Z,99825.81
2022-08-25T19:23:53.505Z,99823.44
2022-08-25T19:26:21.389Z,99817.41
2022-08-25T19:28:49.510Z,99818.50
2022-08-25T19:31:22.857Z,99825.47
2022-08-25T19:33:53.035Z,99825.47
2022-08-25T19:36:28.008Z,99824.16
2022-08-25T19:38:58.660Z,99822.91
2022-08-25T19:41:27.908Z,99821.56
2022-08-25T19:43:57.479Z,99822.56
2022-08-25T19:46:35.437Z,99826.91
2022-08-25T19:49:11.134Z,99830.09
2022-08-25T19:51:46.838Z,99835.38
2022-08-25T19:54:27.007Z,99836.94
2022-08-25T19:56:55.617Z,99841.59
2022-08-25T19:59:34.276Z,99841.00
2022-08-25T20:02:20.288Z,99848.34
2022-08-25T20:04:52.674Z,99852.56
2022-08-25T20:07:23.781Z,99855.22
2022-08-25T20:09:53.246Z,99850.84
2022-08-25T20:12:23.488Z,99844.84
2022-08-25T20:14:52.096Z,99847.63
2022-08-25T20:17:24.295Z,99850.84
2022-08-25T20:19:56.195Z,99854.66
2022-08-25T20:22:27.146Z,99866.22
2022-08-25T20:25:02.342Z,99855.44
2022-08-25T20:27:41.289Z,99855.38
2022-08-25T20:30:14.156Z,99862.69
2022-08-25T20:32:45.891Z,99868.19
2022-08-25T20:35:14.549Z,99864.78
2022-08-25T20:37:44.543Z,99856.50
2022-08-25T20:40:14.534Z,99861.25
2022-08-25T20:42:43.488Z,99861.63
2022-08-25T20:45:13.878Z,99871.09
2022-08-25T20:47:41.067Z,99863.50
2022-08-25T20:50:09.349Z,99869.91
2022-08-25T20:52:42.363Z,99858.69
2022-08-25T20:55:10.501Z,99864.97
2022-08-25T20:57:39.539Z,99864.34
2022-08-25T21:00:08.802Z,99867.16
2022-08-25T21:02:37.021Z,99866.44
2022-08-25T21:05:04.729Z,99866.03
2022-08-25T21:07:31.814Z,99859.34
2022-08-25T21:10:06.831Z,99858.34
2022-08-25T21:12:38.947Z,99859.41
2022-08-25T21:15:07.147Z,99853.66
2022-08-25T21:17:36.043Z,99866.44
2022-08-25T21:20:06.071Z,99859.97
2022-08-25T21:22:35.495Z,99859.16
2022-08-25T21:25:03.125Z,99864.03
2022-08-25T21:27:30.286Z,99864.19
2022-08-25T21:29:57.472Z,99867.75
2022-08-25T21:32:24.685Z,99870.31
2022-08-25T21:34:55.595Z,99861.94
2022-08-25T21:37:24.315Z,99863.84
2022-08-25T21:39:52.934Z,99866.13
2022-08-25T21:42:23.890Z,99871.91
2022-08-25T21:44:52.520Z,99871.09
2022-08-25T21:47:21.542Z,99868.72
2022-08-25T21:49:49.888Z,99883.00
2022-08-25T21:52:17.923Z,99889.38
2022-08-25T21:54:45.379Z,99887.09
2022-08-25T21:57:12.815Z,99885.47
2022-08-25T21:59:41.288Z,99893.31
2022-08-25T22:02:13.324Z,99887.97
2022-08-25T22:04:42.113Z,99886.34
2022-08-25T22:07:10.856Z,99881.66
2022-08-25T22:09:39.169Z,99886.16
2022-08-25T22:12:06.755Z,99886.84
2022-08-25T22:14:34.476Z,99888.72
2022-08-25T22:17:01.892Z,99889.28
2022-08-25T22:19:28.996Z,99900.25
2022-08-25T22:21:57.120Z,99899.00
2022-08-25T22:24:28.477Z,99900.88
2022-08-25T22:26:56.795Z,99900.63
2022-08-25T22:29:25.393Z,99894.53
2022-08-25T22:32:00.681Z,99893.72
2022-08-25T22:34:35.141Z,99897.06
2022-08-25T22:37:07.261Z,99898.09
2022-08-25T22:39:35.426Z,99903.16
2022-08-25T22:42:03.727Z,99897.88
2022-08-25T22:44:31.861Z,99892.47
2022-08-25T22:46:58.815Z,99890.63
2022-08-25T22:49:29.390Z,99889.59
2022-08-25T22:51:57.609Z,99891.78
2022-08-25T22:54:25.603Z,99888.88
2022-08-25T22:56:53.237Z,99883.25
2022-08-25T22:59:20.203Z,99876.31
2022-08-25T23:01:49.957Z,99885.28
2022-08-25T23:04:17.685Z,99876.19
2022-08-25T23:06:46.469Z,99878.94
2022-08-25T23:09:14.466Z,99885.28
2022-08-25T23:11:43.192Z,99880.69
2022-08-25T23:14:11.423Z,99885.19
2022-08-25T23:16:41.697Z,99878.28
2022-08-25T23:19:14.257Z,99878.75
2022-08-25T23:22:01.902Z,99878.38
2022-08-25T23:24:30.765Z,99878.63
2022-08-25T23:27:00.794Z,99881.88
2022-08-25T23:29:28.918Z,99878.03
2022-08-25T23:31:57.683Z,99877.69
2022-08-25T23:34:25.843Z,99874.38
2022-08-25T23:36:53.553Z,99874.13
2022-08-25T23:39:22.198Z,99876.44
2022-08-25T23:41:50.415Z,99878.94
2022-08-25T23:44:19.714Z,99878.22
2022-08-25T23:46:48.600Z,99880.25
2022-08-25T23:49:18.514Z,99878.13
2022-08-25T23:51:48.803Z,99872.72
2022-08-25T23:54:17.040Z,99873.44
2022-08-25T23:56:51.814Z,99875.50
2022-08-25T23:59:24.736Z,99869.28
